sensor_id;sensor_type;location;lat;lon;timestamp;pressure;altitude;pressure_sealevel;temperature;humidity
33404;BME280;19751;40.274;18.268;2023-06-04T00:02:16;101104.94;;;20.70;100.00
33404;BME280;19751;40.274;18.268;2023-06-04T00:04:42;101109.47;;;20.65;100.00
33404;BME280;19751;40.274;18.268;2023-06-04T00:07:07;101100.34;;;20.59;100.00
33404;BME280;19751;40.274;18.268;2023-06-04T00:09:33;101099.19;;;20.55;100.00
33404;BME280;19751;40.274;18.268;2023-06-04T00:11:58;101105.66;;;20.49;100.00
33404;BME280;19751;40.274;18.268;2023-06-04T00:14:24;101101.94;;;20.43;100.00
33404;BME280;19751;40.274;18.268;2023-06-04T00:16:49;101101.94;;;20.43;100.00
33404;BME280;19751;40.274;18.268;2023-06-04T00:19:15;101100.56;;;20.41;100.00
33404;BME280;19751;40.274;18.268;2023-06-04T00:21:40;101101.13;;;20.43;100.00
33404;BME280;19751;40.274;18.268;2023-06-04T00:24:06;101105.50;;;20.44;100.00
33404;BME280;19751;40.274;18.268;2023-06-04T00:26:33;101100.56;;;20.41;100.00
33404;BME280;19751;40.274;18.268;2023-06-04T00:28:58;101099.47;;;20.42;100.00
33404;BME280;19751;40.274;18.268;2023-06-04T00:31:24;101098.03;;;20.39;100.00
33404;BME280;19751;40.274;18.268;2023-06-04T00:33:50;101092.22;;;20.35;100.00
33404;BME280;19751;40.274;18.268;2023-06-04T00:36:16;101087.03;;;20.34;100.00
33404;BME280;19751;40.274;18.268;2023-06-04T00:38:41;101091.56;;;20.28;100.00
33404;BME280;19751;40.274;18.268;2023-06-04T00:41:07;101084.34;;;20.22;100.00
33404;BME280;19751;40.274;18.268;2023-06-04T00:43:32;101086.25;;;20.22;100.00
33404;BME280;19751;40.274;18.268;2023-06-04T00:45:58;101087.91;;;20.23;100.00
33404;BME280;19751;40.274;18.268;2023-06-04T00:48:25;101093.16;;;20.24;100.00
33404;BME280;19751;40.274;18.268;2023-06-04T00:50:53;101090.88;;;20.21;100.00
33404;BME280;19751;40.274;18.268;2023-06-04T00:53:20;101087.31;;;20.21;100.00
33404;BME280;19751;40.274;18.268;2023-06-04T00:55:46;101090.28;;;20.19;100.00
33404;BME280;19751;40.274;18.268;2023-06-04T00:58:11;101090.28;;;20.19;100.00
33404;BME280;19751;40.274;18.268;2023-06-04T01:00:38;101095.66;;;20.14;100.00
33404;BME280;19751;40.274;18.268;2023-06-04T01:03:07;101097.50;;;20.08;100.00
33404;BME280;19751;40.274;18.268;2023-06-04T01:05:41;101103.44;;;20.05;100.00
33404;BME280;19751;40.274;18.268;2023-06-04T01:08:10;101102.59;;;20.05;100.00
33404;BME280;19751;40.274;18.268;2023-06-04T01:10:36;101102.25;;;20.01;100.00
33404;BME280;19751;40.274;18.268;2023-06-04T01:13:02;101097.63;;;20.02;100.00
33404;BME280;19751;40.274;18.268;2023-06-04T01:15:27;101100.13;;;20.03;100.00
33404;BME280;19751;40.274;18.268;2023-06-04T01:18:00;101102.00;;;20.03;100.00
33404;BME280;19751;40.274;18.268;2023-06-04T01:20:42;101104.41;;;19.99;100.00
33404;BME280;19751;40.274;18.268;2023-06-04T01:26:00;101092.53;;;19.94;100.00
33404;BME280;19751;40.274;18.268;2023-06-04T01:28:28;101096.00;;;19.89;100.00
33404;BME280;19751;40.274;18.268;2023-06-04T01:30:55;101096.47;;;19.86;100.00
33404;BME280;19751;40.274;18.268;2023-06-04T01:33:22;101095.91;;;19.84;100.00
33404;BME280;19751;40.274;18.268;2023-06-04T01:35:48;101101.84;;;19.81;100.00
33404;BME280;19751;40.274;18.268;2023-06-04T01:38:14;101104.00;;;19.79;100.00
33404;BME280;19751;40.274;18.268;2023-06-04T01:40:40;101095.56;;;19.80;100.00
33404;BME280;19751;40.274;18.268;2023-06-04T01:43:06;101103.19;;;19.78;100.00
33404;BME280;19751;40.274;18.268;2023-06-04T01:45:32;101101.50;;;19.77;100.00
33404;BME280;19751;40.274;18.268;2023-06-04T01:47:57;101098.41;;;19.74;100.00
33404;BME280;19751;40.274;18.268;2023-06-04T01:50:23;101109.13;;;19.75;100.00
33404;BME280;19751;40.274;18.268;2023-06-04T01:52:49;101108.28;;;19.75;100.00
33404;BME280;19751;40.274;18.268;2023-06-04T01:55:16;101106.38;;;19.75;100.00
33404;BME280;19751;40.274;18.268;2023-06-04T01:57:43;101116.50;;;19.75;100.00
33404;BME280;19751;40.274;18.268;2023-06-04T02:00:10;101107.13;;;19.71;100.00
33404;BME280;19751;40.274;18.268;2023-06-04T02:02:36;101105.69;;;19.68;100.00
33404;BME280;19751;40.274;18.268;2023-06-04T02:05:05;101110.06;;;19.69;100.00
33404;BME280;19751;40.274;18.268;2023-06-04T02:07:37;101114.34;;;19.65;100.00
33404;BME280;19751;40.274;18.268;2023-06-04T02:10:16;101124.94;;;19.61;100.00
33404;BME280;19751;40.274;18.268;2023-06-04T02:13:12;101119.59;;;19.55;100.00
33404;BME280;19751;40.274;18.268;2023-06-04T02:15:38;101113.50;;;19.53;100.00
33404;BME280;19751;40.274;18.268;2023-06-04T02:18:15;101110.78;;;19.53;100.00
33404;BME280;19751;40.274;18.268;2023-06-04T02:20:47;101111.97;;;19.57;100.00
33404;BME280;19751;40.274;18.268;2023-06-04T02:23:14;101114.13;;;19.55;100.00
33404;BME280;19751;40.274;18.268;2023-06-04T02:25:40;101103.56;;;19.47;100.00
33404;BME280;19751;40.274;18.268;2023-06-04T02:28:07;101108.66;;;19.43;100.00
33404;BME280;19751;40.274;18.268;2023-06-04T02:30:33;101109.75;;;19.42;100.00
33404;BME280;19751;40.274;18.268;2023-06-04T02:32:59;101112.09;;;19.38;100.00
33404;BME280;19751;40.274;18.268;2023-06-04T02:35:27;101124.94;;;19.38;100.00
33404;BME280;19751;40.274;18.268;2023-06-04T02:37:53;101119.69;;;19.36;100.00
33404;BME280;19751;40.274;18.268;2023-06-04T02:40:19;101127.31;;;19.34;100.00
33404;BME280;19751;40.274;18.268;2023-06-04T02:42:44;101125.31;;;19.30;100.00
33404;BME280;19751;40.274;18.268;2023-06-04T02:45:10;101122.78;;;19.28;100.00
33404;BME280;19751;40.274;18.268;2023-06-04T02:47:36;101122.09;;;19.21;100.00
33404;BME280;19751;40.274;18.268;2023-06-04T02:50:03;101115.34;;;19.12;100.00
33404;BME280;19751;40.274;18.268;2023-06-04T02:52:29;101117.09;;;19.06;100.00
33404;BME280;19751;40.274;18.268;2023-06-04T02:54:56;101117.81;;;19.02;100.00
33404;BME280;19751;40.274;18.268;2023-06-04T02:57:22;101115.78;;;18.97;100.00
33404;BME280;19751;40.274;18.268;2023-06-04T02:59:48;101119.47;;;18.91;100.00
33404;BME280;19751;40.274;18.268;2023-06-04T03:02:13;101118.50;;;18.85;100.00
33404;BME280;19751;40.274;18.268;2023-06-04T03:04:41;101117.09;;;18.83;100.00
33404;BME280;19751;40.274;18.268;2023-06-04T03:07:08;101119.56;;;18.84;100.00
33404;BME280;19751;40.274;18.268;2023-06-04T03:09:36;101123.97;;;18.85;100.00
33404;BME280;19751;40.274;18.268;2023-06-04T03:12:03;101119.31;;;18.86;100.00
33404;BME280;19751;40.274;18.268;2023-06-04T03:14:29;101124.31;;;18.89;100.00
33404;BME280;19751;40.274;18.268;2023-06-04T03:17:01;101120.31;;;18.92;100.00
33404;BME280;19751;40.274;18.268;2023-06-04T03:19:37;101115.66;;;18.92;100.00
33404;BME280;19751;40.274;18.268;2023-06-04T03:22:04;101117.56;;;18.92;100.00
33404;BME280;19751;40.274;18.268;2023-06-04T03:24:37;101119.69;;;18.90;100.00
33404;BME280;19751;40.274;18.268;2023-06-04T03:27:03;101119.09;;;18.87;100.00
33404;BME280;19751;40.274;18.268;2023-06-04T03:29:29;101125.41;;;18.88;100.00
33404;BME280;19751;40.274;18.268;2023-06-04T03:31:58;101111.97;;;18.86;100.00
33404;BME280;19751;40.274;18.268;2023-06-04T03:34:24;101114.56;;;18.81;100.00
33404;BME280;19751;40.274;18.268;2023-06-04T03:36:54;101117.66;;;18.85;100.00
33404;BME280;19751;40.274;18.268;2023-06-04T03:39:20;101117.31;;;18.93;100.00
33404;BME280;19751;40.274;18.268;2023-06-04T03:41:46;101123.16;;;18.97;100.00
33404;BME280;19751;40.274;18.268;2023-06-04T03:44:13;101133.59;;;19.00;100.00
33404;BME280;19751;40.274;18.268;2023-06-04T03:46:39;101133.47;;;19.06;100.00
33404;BME280;19751;40.274;18.268;2023-06-04T03:49:05;101139.31;;;19.10;100.00
33404;BME280;19751;40.274;18.268;2023-06-04T03:51:30;101131.81;;;19.05;100.00
33404;BME280;19751;40.274;18.268;2023-06-04T03:53:58;101140.25;;;19.04;100.00
33404;BME280;19751;40.274;18.268;2023-06-04T03:56:23;101123.00;;;19.03;100.00
33404;BME280;19751;40.274;18.268;2023-06-04T03:58:49;101134.31;;;19.07;100.00
33404;BME280;19751;40.274;18.268;2023-06-04T04:01:15;101136.31;;;19.11;100.00
33404;BME280;19751;40.274;18.268;2023-06-04T04:03:42;101134.56;;;19.17;100.00
33404;BME280;19751;40.274;18.268;2023-06-04T04:06:09;101136.13;;;19.25;100.00
33404;BME280;19751;40.274;18.268;2023-06-04T04:08:35;101138.50;;;19.33;100.00
33404;BME280;19751;40.274;18.268;2023-06-04T04:11:00;101130.75;;;19.42;100.00
33404;BME280;19751;40.274;18.268;2023-06-04T04:13:26;101138.59;;;19.50;100.00
33404;BME280;19751;40.274;18.268;2023-06-04T04:15:52;101134.91;;;19.56;100.00
33404;BME280;19751;40.274;18.268;2023-06-04T04:18:22;101138.38;;;19.63;100.00
33404;BME280;19751;40.274;18.268;2023-06-04T04:20:48;101130.53;;;19.67;100.00
33404;BME280;19751;40.274;18.268;2023-06-04T04:23:14;101135.75;;;19.68;100.00
33404;BME280;19751;40.274;18.268;2023-06-04T04:25:39;101140.38;;;19.68;100.00
33404;BME280;19751;40.274;18.268;2023-06-04T04:28:05;101152.03;;;19.75;100.00
33404;BME280;19751;40.274;18.268;2023-06-04T04:30:34;101155.22;;;19.83;100.00
33404;BME280;19751;40.274;18.268;2023-06-04T04:33:01;101158.03;;;19.89;100.00
33404;BME280;19751;40.274;18.268;2023-06-04T04:35:26;101164.69;;;19.93;100.00
33404;BME280;19751;40.274;18.268;2023-06-04T04:37:52;101165.88;;;19.97;100.00
33404;BME280;19751;40.274;18.268;2023-06-04T04:40:17;101167.31;;;19.99;100.00
33404;BME280;19751;40.274;18.268;2023-06-04T04:42:43;101170.38;;;20.03;100.00
33404;BME280;19751;40.274;18.268;2023-06-04T04:45:09;101174.28;;;20.07;100.00
33404;BME280;19751;40.274;18.268;2023-06-04T04:47:35;101173.22;;;20.08;100.00
33404;BME280;19751;40.274;18.268;2023-06-04T04:50:00;101181.19;;;20.09;100.00
33404;BME280;19751;40.274;18.268;2023-06-04T04:52:26;101179.38;;;20.15;100.00
33404;BME280;19751;40.274;18.268;2023-06-04T04:54:51;101172.13;;;20.21;100.00
33404;BME280;19751;40.274;18.268;2023-06-04T04:57:21;101179.13;;;20.28;100.00
33404;BME280;19751;40.274;18.268;2023-06-04T04:59:47;101181.47;;;20.36;100.00
33404;BME280;19751;40.274;18.268;2023-06-04T05:02:13;101182.13;;;20.44;100.00
33404;BME280;19751;40.274;18.268;2023-06-04T05:04:38;101182.28;;;20.49;100.00
33404;BME280;19751;40.274;18.268;2023-06-04T05:07:04;101176.91;;;20.54;100.00
33404;BME280;19751;40.274;18.268;2023-06-04T05:09:30;101169.84;;;20.58;100.00
33404;BME280;19751;40.274;18.268;2023-06-04T05:11:55;101170.50;;;20.65;100.00
33404;BME280;19751;40.274;18.268;2023-06-04T05:14:21;101172.03;;;20.73;100.00
33404;BME280;19751;40.274;18.268;2023-06-04T05:16:46;101167.50;;;20.78;100.00
33404;BME280;19751;40.274;18.268;2023-06-04T05:19:13;101166.16;;;20.81;100.00
33404;BME280;19751;40.274;18.268;2023-06-04T05:21:41;101169.81;;;20.87;100.00
33404;BME280;19751;40.274;18.268;2023-06-04T05:24:07;101161.94;;;20.90;100.00
33404;BME280;19751;40.274;18.268;2023-06-04T05:26:33;101172.72;;;20.97;100.00
33404;BME280;19751;40.274;18.268;2023-06-04T05:28:59;101165.19;;;21.04;100.00
33404;BME280;19751;40.274;18.268;2023-06-04T05:31:24;101174.56;;;21.08;100.00
33404;BME280;19751;40.274;18.268;2023-06-04T05:33:52;101173.56;;;21.14;100.00
33404;BME280;19751;40.274;18.268;2023-06-04T05:36:17;101169.00;;;21.20;100.00
33404;BME280;19751;40.274;18.268;2023-06-04T05:38:43;101172.66;;;21.25;100.00
33404;BME280;19751;40.274;18.268;2023-06-04T05:41:09;101172.53;;;21.32;100.00
33404;BME280;19751;40.274;18.268;2023-06-04T05:43:34;101178.31;;;21.35;100.00
33404;BME280;19751;40.274;18.268;2023-06-04T05:46:00;101170.75;;;21.43;100.00
33404;BME280;19751;40.274;18.268;2023-06-04T05:48:26;101173.31;;;21.49;100.00
33404;BME280;19751;40.274;18.268;2023-06-04T05:50:51;101169.56;;;21.55;100.00
33404;BME280;19751;40.274;18.268;2023-06-04T05:53:17;101171.88;;;21.64;100.00
33404;BME280;19751;40.274;18.268;2023-06-04T05:55:42;101176.91;;;21.72;100.00
33404;BME280;19751;40.274;18.268;2023-06-04T05:58:08;101175.66;;;21.79;100.00
33404;BME280;19751;40.274;18.268;2023-06-04T06:00:33;101171.91;;;21.86;100.00
33404;BME280;19751;40.274;18.268;2023-06-04T06:03:00;101170.06;;;21.91;100.00
33404;BME280;19751;40.274;18.268;2023-06-04T06:05:26;101181.34;;;21.95;100.00
33404;BME280;19751;40.274;18.268;2023-06-04T06:07:52;101178.66;;;22.00;100.00
33404;BME280;19751;40.274;18.268;2023-06-04T06:10:17;101175.16;;;22.04;100.00
33404;BME280;19751;40.274;18.268;2023-06-04T06:12:43;101177.97;;;22.09;100.00
33404;BME280;19751;40.274;18.268;2023-06-04T06:15:09;101179.72;;;22.16;100.00
33404;BME280;19751;40.274;18.268;2023-06-04T06:17:37;101186.41;;;22.25;100.00
33404;BME280;19751;40.274;18.268;2023-06-04T06:20:03;101184.31;;;22.32;100.00
33404;BME280;19751;40.274;18.268;2023-06-04T06:22:32;101179.16;;;22.36;100.00
33404;BME280;19751;40.274;18.268;2023-06-04T06:24:59;101183.03;;;22.40;100.00
33404;BME280;19751;40.274;18.268;2023-06-04T06:27:25;101184.72;;;22.46;100.00
33404;BME280;19751;40.274;18.268;2023-06-04T06:29:50;101185.59;;;22.51;100.00
33404;BME280;19751;40.274;18.268;2023-06-04T06:32:16;101188.16;;;22.58;100.00
33404;BME280;19751;40.274;18.268;2023-06-04T06:34:41;101181.88;;;22.63;100.00
33404;BME280;19751;40.274;18.268;2023-06-04T06:37:07;101189.34;;;22.67;100.00
33404;BME280;19751;40.274;18.268;2023-06-04T06:39:36;101188.56;;;22.72;100.00
33404;BME280;19751;40.274;18.268;2023-06-04T06:42:02;101182.56;;;22.75;100.00
33404;BME280;19751;40.274;18.268;2023-06-04T06:44:28;101183.97;;;22.77;100.00
33404;BME280;19751;40.274;18.268;2023-06-04T06:46:54;101189.50;;;22.82;100.00
33404;BME280;19751;40.274;18.268;2023-06-04T06:49:19;101195.03;;;22.88;100.00
33404;BME280;19751;40.274;18.268;2023-06-04T06:51:45;101190.19;;;22.95;100.00
33404;BME280;19751;40.274;18.268;2023-06-04T06:54:10;101200.44;;;23.04;100.00
33404;BME280;19751;40.274;18.268;2023-06-04T06:56:36;101190.84;;;23.07;100.00
33404;BME280;19751;40.274;18.268;2023-06-04T06:59:01;101198.81;;;23.08;100.00
33404;BME280;19751;40.274;18.268;2023-06-04T07:01:27;101196.91;;;23.09;100.00
33404;BME280;19751;40.274;18.268;2023-06-04T07:03:52;101201.59;;;23.14;100.00
33404;BME280;19751;40.274;18.268;2023-06-04T07:06:18;101208.00;;;23.19;100.00
33404;BME280;19751;40.274;18.268;2023-06-04T07:08:43;101201.44;;;23.25;100.00
33404;BME280;19751;40.274;18.268;2023-06-04T07:11:09;101202.31;;;23.31;100.00
33404;BME280;19751;40.274;18.268;2023-06-04T07:13:38;101201.53;;;23.36;100.00
33404;BME280;19751;40.274;18.268;2023-06-04T07:16:03;101206.47;;;23.39;100.00
33404;BME280;19751;40.274;18.268;2023-06-04T07:18:29;101210.63;;;23.41;100.00
33404;BME280;19751;40.274;18.268;2023-06-04T07:20:54;101212.56;;;23.41;100.00
33404;BME280;19751;40.274;18.268;2023-06-04T07:23:20;101208.41;;;23.38;100.00
33404;BME280;19751;40.274;18.268;2023-06-04T07:25:46;101214.19;;;23.37;100.00
33404;BME280;19751;40.274;18.268;2023-06-04T07:28:11;101205.13;;;23.41;100.00
33404;BME280;19751;40.274;18.268;2023-06-04T07:30:37;101207.13;;;23.51;100.00
33404;BME280;19751;40.274;18.268;2023-06-04T07:33:03;101204.47;;;23.61;100.00
33404;BME280;19751;40.274;18.268;2023-06-04T07:35:30;101206.47;;;23.71;100.00
33404;BME280;19751;40.274;18.268;2023-06-04T07:37:55;101212.03;;;23.81;100.00
33404;BME280;19751;40.274;18.268;2023-06-04T07:40:21;101211.81;;;23.93;100.00
33404;BME280;19751;40.274;18.268;2023-06-04T07:42:47;101216.78;;;24.01;100.00
33404;BME280;19751;40.274;18.268;2023-06-04T07:45:13;101219.56;;;24.01;100.00
33404;BME280;19751;40.274;18.268;2023-06-04T07:47:39;101219.56;;;24.01;100.00
33404;BME280;19751;40.274;18.268;2023-06-04T07:50:06;101220.13;;;24.03;100.00
33404;BME280;19751;40.274;18.268;2023-06-04T07:52:31;101227.06;;;24.11;100.00
33404;BME280;19751;40.274;18.268;2023-06-04T07:54:57;101222.38;;;24.16;100.00
33404;BME280;19751;40.274;18.268;2023-06-04T07:57:23;101233.69;;;24.20;100.00
33404;BME280;19751;40.274;18.268;2023-06-04T07:59:49;101234.50;;;24.20;100.00
33404;BME280;19751;40.274;18.268;2023-06-04T08:02:15;101232.88;;;24.19;100.00
33404;BME280;19751;40.274;18.268;2023-06-04T08:04:41;101233.69;;;24.20;100.00
33404;BME280;19751;40.274;18.268;2023-06-04T08:07:06;101232.06;;;24.29;100.00
33404;BME280;19751;40.274;18.268;2023-06-04T08:09:32;101232.97;;;24.40;100.00
33404;BME280;19751;40.274;18.268;2023-06-04T08:11:57;101236.31;;;24.47;99.56
33404;BME280;19751;40.274;18.268;2023-06-04T08:14:23;101229.13;;;24.51;98.60
33404;BME280;19751;40.274;18.268;2023-06-04T08:16:52;101230.00;;;24.57;98.40
33404;BME280;19751;40.274;18.268;2023-06-04T08:19:18;101225.03;;;24.59;97.76
33404;BME280;19751;40.274;18.268;2023-06-04T08:21:43;101228.66;;;24.64;96.48
33404;BME280;19751;40.274;18.268;2023-06-04T08:24:10;101238.56;;;24.75;94.10
33404;BME280;19751;40.274;18.268;2023-06-04T08:26:35;101236.41;;;24.83;92.87
33404;BME280;19751;40.274;18.268;2023-06-04T08:29:04;101232.81;;;24.87;92.21
33404;BME280;19751;40.274;18.268;2023-06-04T08:31:30;101237.25;;;24.93;91.33
33404;BME280;19751;40.274;18.268;2023-06-04T08:33:55;101236.44;;;25.03;89.99
33404;BME280;19751;40.274;18.268;2023-06-04T08:36:21;101238.66;;;25.11;90.43
33404;BME280;19751;40.274;18.268;2023-06-04T08:38:46;101233.44;;;25.20;88.12
33404;BME280;19751;40.274;18.268;2023-06-04T08:41:20;101235.38;;;25.24;87.06
33404;BME280;19751;40.274;18.268;2023-06-04T08:43:49;101230.41;;;25.26;84.79
33404;BME280;19751;40.274;18.268;2023-06-04T08:46:17;101237.00;;;25.25;83.48
33404;BME280;19751;40.274;18.268;2023-06-04T08:48:43;101230.13;;;25.23;81.87
33404;BME280;19751;40.274;18.268;2023-06-04T08:51:10;101230.38;;;25.21;81.82
33404;BME280;19751;40.274;18.268;2023-06-04T08:53:37;101228.47;;;25.12;81.41
33404;BME280;19751;40.274;18.268;2023-06-04T08:56:03;101227.88;;;25.04;82.75
33404;BME280;19751;40.274;18.268;2023-06-04T08:58:32;101228.16;;;24.98;83.26
33404;BME280;19751;40.274;18.268;2023-06-04T09:01:00;101227.06;;;24.89;82.20
33404;BME280;19751;40.274;18.268;2023-06-04T09:03:26;101235.28;;;24.84;82.20
33404;BME280;19751;40.274;18.268;2023-06-04T09:05:54;101236.69;;;24.81;82.71
33404;BME280;19751;40.274;18.268;2023-06-04T09:08:21;101230.06;;;24.82;82.37
33404;BME280;19751;40.274;18.268;2023-06-04T09:10:49;101247.13;;;24.84;83.40
33404;BME280;19751;40.274;18.268;2023-06-04T09:13:18;101247.41;;;24.83;87.57
33404;BME280;19751;40.274;18.268;2023-06-04T09:15:45;101249.63;;;24.80;96.12
33404;BME280;19751;40.274;18.268;2023-06-04T09:18:11;101260.63;;;24.75;100.00
33404;BME280;19751;40.274;18.268;2023-06-04T09:20:37;101253.44;;;24.69;100.00
33404;BME280;19751;40.274;18.268;2023-06-04T09:23:13;101255.38;;;24.64;100.00
33404;BME280;19751;40.274;18.268;2023-06-04T09:25:43;101252.84;;;24.52;100.00
33404;BME280;19751;40.274;18.268;2023-06-04T09:28:09;101264.94;;;24.46;100.00
33404;BME280;19751;40.274;18.268;2023-06-04T09:30:34;101254.50;;;24.48;100.00
33404;BME280;19751;40.274;18.268;2023-06-04T09:33:10;101248.72;;;24.54;100.00
33404;BME280;19751;40.274;18.268;2023-06-04T09:35:37;101241.31;;;24.65;100.00
33404;BME280;19751;40.274;18.268;2023-06-04T09:38:04;101247.69;;;24.76;100.00
33404;BME280;19751;40.274;18.268;2023-06-04T09:40:37;101233.66;;;24.98;100.00
33404;BME280;19751;40.274;18.268;2023-06-04T09:43:02;101252.75;;;25.10;98.08
33404;BME280;19751;40.274;18.268;2023-06-04T09:45:32;101256.31;;;25.10;80.56
33404;BME280;19751;40.274;18.268;2023-06-04T09:48:00;101262.38;;;25.12;90.50
33404;BME280;19751;40.274;18.268;2023-06-04T09:50:34;101263.47;;;25.16;98.82
33404;BME280;19751;40.274;18.268;2023-06-04T09:53:12;101266.81;;;25.18;100.00
33404;BME280;19751;40.274;18.268;2023-06-04T09:55:38;101259.88;;;25.21;100.00
33404;BME280;19751;40.274;18.268;2023-06-04T09:58:04;101274.25;;;25.28;100.00
33404;BME280;19751;40.274;18.268;2023-06-04T10:00:30;101261.84;;;25.36;100.00
33404;BME280;19751;40.274;18.268;2023-06-04T10:02:57;101261.84;;;25.41;100.00
33404;BME280;19751;40.274;18.268;2023-06-04T10:05:24;101260.72;;;25.42;100.00
33404;BME280;19751;40.274;18.268;2023-06-04T10:07:51;101263.22;;;25.43;100.00
33404;BME280;19751;40.274;18.268;2023-06-04T10:10:23;101264.03;;;25.44;100.00
33404;BME280;19751;40.274;18.268;2023-06-04T10:13:00;101245.28;;;25.46;100.00
33404;BME280;19751;40.274;18.268;2023-06-04T10:15:27;101251.34;;;25.53;100.00
33404;BME280;19751;40.274;18.268;2023-06-04T10:17:54;101257.69;;;25.59;100.00
33404;BME280;19751;40.274;18.268;2023-06-04T10:20:21;101259.88;;;25.62;100.00
33404;BME280;19751;40.274;18.268;2023-06-04T10:22:48;101256.84;;;25.68;100.00
33404;BME280;19751;40.274;18.268;2023-06-04T10:25:15;101257.69;;;25.69;100.00
33404;BME280;19751;40.274;18.268;2023-06-04T10:27:41;101264.00;;;25.74;100.00
33404;BME280;19751;40.274;18.268;2023-06-04T10:30:07;101253.28;;;25.78;100.00
33404;BME280;19751;40.274;18.268;2023-06-04T10:32:34;101260.19;;;25.81;100.00
33404;BME280;19751;40.274;18.268;2023-06-04T10:35:04;101254.09;;;25.84;100.00
33404;BME280;19751;40.274;18.268;2023-06-04T10:37:29;101257.94;;;25.88;100.00
33404;BME280;19751;40.274;18.268;2023-06-04T10:39:56;101251.31;;;25.94;100.00
33404;BME280;19751;40.274;18.268;2023-06-04T10:42:24;101259.28;;;26.06;100.00
33404;BME280;19751;40.274;18.268;2023-06-04T10:44:51;101255.66;;;26.15;100.00
33404;BME280;19751;40.274;18.268;2023-06-04T10:47:24;101252.31;;;26.23;100.00
33404;BME280;19751;40.274;18.268;2023-06-04T10:49:54;101242.09;;;26.24;98.04
33404;BME280;19751;40.274;18.268;2023-06-04T10:52:21;101245.69;;;26.30;91.58
33404;BME280;19751;40.274;18.268;2023-06-04T10:54:47;101237.91;;;26.37;90.21
33404;BME280;19751;40.274;18.268;2023-06-04T10:57:19;101241.19;;;26.49;89.95
33404;BME280;19751;40.274;18.268;2023-06-04T10:59:54;101242.25;;;26.58;88.41
33404;BME280;19751;40.274;18.268;2023-06-04T11:02:20;101235.28;;;26.66;87.94
33404;BME280;19751;40.274;18.268;2023-06-04T11:04:46;101235.00;;;26.72;88.22
33404;BME280;19751;40.274;18.268;2023-06-04T11:07:11;101225.28;;;26.80;88.13
33404;BME280;19751;40.274;18.268;2023-06-04T11:09:47;101235.16;;;26.86;87.66
33404;BME280;19751;40.274;18.268;2023-06-04T11:12:13;101235.72;;;26.83;86.11
33404;BME280;19751;40.274;18.268;2023-06-04T11:14:38;101229.38;;;26.83;84.87
33404;BME280;19751;40.274;18.268;2023-06-04T11:17:12;101213.13;;;26.76;84.85
33404;BME280;19751;40.274;18.268;2023-06-04T11:19:38;101212.91;;;26.67;83.80
33404;BME280;19751;40.274;18.268;2023-06-04T11:22:10;101210.75;;;26.54;83.51
33404;BME280;19751;40.274;18.268;2023-06-04T11:24:36;101218.81;;;26.40;82.27
33404;BME280;19751;40.274;18.268;2023-06-04T11:27:02;101208.13;;;26.28;82.95
33404;BME280;19751;40.274;18.268;2023-06-04T11:29:28;101212.56;;;26.19;83.62
33404;BME280;19751;40.274;18.268;2023-06-04T11:31:53;101217.84;;;26.11;82.34
33404;BME280;19751;40.274;18.268;2023-06-04T11:34:29;101215.13;;;26.06;81.29
33404;BME280;19751;40.274;18.268;2023-06-04T11:37:07;101231.41;;;26.02;80.78
33404;BME280;19751;40.274;18.268;2023-06-04T11:39:37;101254.06;;;25.99;81.45
33404;BME280;19751;40.274;18.268;2023-06-04T11:42:05;101268.16;;;25.97;97.52
33404;BME280;19751;40.274;18.268;2023-06-04T11:44:32;101287.75;;;25.65;100.00
33404;BME280;19751;40.274;18.268;2023-06-04T11:46:58;101306.75;;;25.21;92.75
33404;BME280;19751;40.274;18.268;2023-06-04T11:49:24;101309.72;;;24.94;90.26
33404;BME280;19751;40.274;18.268;2023-06-04T11:51:52;101334.91;;;24.55;100.00
33404;BME280;19751;40.274;18.268;2023-06-04T11:54:21;101338.72;;;24.01;100.00
33404;BME280;19751;40.274;18.268;2023-06-04T11:56:51;101334.88;;;23.65;100.00
33404;BME280;19751;40.274;18.268;2023-06-04T11:59:17;101330.09;;;23.28;100.00
33404;BME280;19751;40.274;18.268;2023-06-04T12:01:44;101337.31;;;23.07;100.00
33404;BME280;19751;40.274;18.268;2023-06-04T12:04:18;101325.78;;;22.89;100.00
33404;BME280;19751;40.274;18.268;2023-06-04T12:07:00;101319.09;;;22.79;100.00
33404;BME280;19751;40.274;18.268;2023-06-04T12:09:29;101356.22;;;22.82;100.00
33404;BME280;19751;40.274;18.268;2023-06-04T12:12:07;101378.88;;;22.72;100.00
33404;BME280;19751;40.274;18.268;2023-06-04T12:14:33;101405.66;;;22.26;100.00
33404;BME280;19751;40.274;18.268;2023-06-04T12:17:08;101438.16;;;22.01;100.00
33404;BME280;19751;40.274;18.268;2023-06-04T12:19:46;101413.03;;;21.58;100.00
33404;BME280;19751;40.274;18.268;2023-06-04T12:22:12;101397.38;;;21.30;100.00
33404;BME280;19751;40.274;18.268;2023-06-04T12:24:55;101362.56;;;21.14;100.00
33404;BME280;19751;40.274;18.268;2023-06-04T12:27:23;101316.19;;;20.96;100.00
33404;BME280;19751;40.274;18.268;2023-06-04T12:32:24;101308.00;;;20.96;100.00
33404;BME280;19751;40.274;18.268;2023-06-04T12:34:50;101300.78;;;21.06;100.00
33404;BME280;19751;40.274;18.268;2023-06-04T12:37:15;101298.25;;;21.17;100.00
33404;BME280;19751;40.274;18.268;2023-06-04T12:39:41;101297.84;;;21.25;100.00